sensor_id;sensor_type;location;lat;lon;timestamp;pressure;altitude;pressure_sealevel;temperature
70415;BMP280;57837;52.064;113.478;2022-11-15T00:01:39;92986.72;;;-6.41
70415;BMP280;57837;52.064;113.478;2022-11-15T00:05:02;92994.78;;;-6.32
70415;BMP280;57837;52.064;113.478;2022-11-15T00:08:24;92988.25;;;-6.14
70415;BMP280;57837;52.064;113.478;2022-11-15T00:11:46;92993.38;;;-5.84
70415;BMP280;57837;52.064;113.478;2022-11-15T00:15:09;92984.16;;;-5.46
70415;BMP280;57837;52.064;113.478;2022-11-15T00:18:32;92989.59;;;-5.44
70415;BMP280;57837;52.064;113.478;2022-11-15T00:21:54;92992.66;;;-5.32
70415;BMP280;57837;52.064;113.478;2022-11-15T00:25:16;92996.78;;;-4.86
70415;BMP280;57837;52.064;113.478;2022-11-15T00:28:39;93001.50;;;-4.48
70415;BMP280;57837;52.064;113.478;2022-11-15T00:32:02;92999.59;;;-4.17
70415;BMP280;57837;52.064;113.478;2022-11-15T00:35:24;92986.75;;;-4.02
70415;BMP280;57837;52.064;113.478;2022-11-15T00:38:45;92996.38;;;-3.67
70415;BMP280;57837;52.064;113.478;2022-11-15T00:42:07;92991.44;;;-3.45
70415;BMP280;57837;52.064;113.478;2022-11-15T00:45:30;92991.97;;;-3.11
70415;BMP280;57837;52.064;113.478;2022-11-15T00:48:51;92983.31;;;-3.03
70415;BMP280;57837;52.064;113.478;2022-11-15T00:52:14;92986.16;;;-3.19
70415;BMP280;57837;52.064;113.478;2022-11-15T00:55:36;92988.34;;;-3.14
70415;BMP280;57837;52.064;113.478;2022-11-15T00:58:59;92985.19;;;-2.86
70415;BMP280;57837;52.064;113.478;2022-11-15T01:02:21;92982.31;;;-2.77
70415;BMP280;57837;52.064;113.478;2022-11-15T01:05:43;92977.28;;;-2.56
70415;BMP280;57837;52.064;113.478;2022-11-15T01:09:05;92973.34;;;-2.25
70415;BMP280;57837;52.064;113.478;2022-11-15T01:12:28;92985.28;;;-1.97
70415;BMP280;57837;52.064;113.478;2022-11-15T01:15:50;92981.63;;;-1.71
70415;BMP280;57837;52.064;113.478;2022-11-15T01:19:11;92973.88;;;-1.36
70415;BMP280;57837;52.064;113.478;2022-11-15T01:22:33;92969.84;;;-1.12
70415;BMP280;57837;52.064;113.478;2022-11-15T01:25:59;92971.47;;;-0.80
70415;BMP280;57837;52.064;113.478;2022-11-15T01:29:21;92968.38;;;-0.50
70415;BMP280;57837;52.064;113.478;2022-11-15T01:32:44;92970.47;;;-0.38
70415;BMP280;57837;52.064;113.478;2022-11-15T01:36:06;92967.81;;;-0.76
70415;BMP280;57837;52.064;113.478;2022-11-15T01:39:29;92968.09;;;-1.25
70415;BMP280;57837;52.064;113.478;2022-11-15T01:42:51;92965.53;;;-1.18
70415;BMP280;57837;52.064;113.478;2022-11-15T01:46:35;92968.50;;;-0.64
70415;BMP280;57837;52.064;113.478;2022-11-15T01:50:04;92978.00;;;-0.20
70415;BMP280;57837;52.064;113.478;2022-11-15T01:53:29;92963.44;;;0.25
70415;BMP280;57837;52.064;113.478;2022-11-15T01:57:10;92965.25;;;0.55
70415;BMP280;57837;52.064;113.478;2022-11-15T02:00:34;92966.59;;;0.66
70415;BMP280;57837;52.064;113.478;2022-11-15T02:04:04;92963.41;;;0.89
70415;BMP280;57837;52.064;113.478;2022-11-15T02:07:28;92965.28;;;1.12
70415;BMP280;57837;52.064;113.478;2022-11-15T02:10:51;92971.59;;;1.31
70415;BMP280;57837;52.064;113.478;2022-11-15T02:14:16;92961.41;;;1.54
70415;BMP280;57837;52.064;113.478;2022-11-15T02:18:52;92975.91;;;1.84
70415;BMP280;57837;52.064;113.478;2022-11-15T02:25:41;92970.84;;;2.24
70415;BMP280;57837;52.064;113.478;2022-11-15T02:33:35;92974.69;;;2.52
70415;BMP280;57837;52.064;113.478;2022-11-15T02:37:11;92974.97;;;2.57
70415;BMP280;57837;52.064;113.478;2022-11-15T02:40:53;92963.19;;;2.79
70415;BMP280;57837;52.064;113.478;2022-11-15T02:44:40;92963.88;;;3.00
70415;BMP280;57837;52.064;113.478;2022-11-15T02:48:07;92962.16;;;3.13
70415;BMP280;57837;52.064;113.478;2022-11-15T02:51:30;92950.47;;;3.12
70415;BMP280;57837;52.064;113.478;2022-11-15T02:55:00;92953.53;;;3.39
70415;BMP280;57837;52.064;113.478;2022-11-15T03:09:42;92955.97;;;3.59
70415;BMP280;57837;52.064;113.478;2022-11-15T03:17:30;92950.44;;;3.77
70415;BMP280;57837;52.064;113.478;2022-11-15T03:20:55;92952.47;;;3.53
70415;BMP280;57837;52.064;113.478;2022-11-15T03:24:20;92942.41;;;3.46
70415;BMP280;57837;52.064;113.478;2022-11-15T03:27:50;92932.34;;;3.55
70415;BMP280;57837;52.064;113.478;2022-11-15T03:31:14;92936.00;;;3.54
70415;BMP280;57837;52.064;113.478;2022-11-15T03:35:12;92929.25;;;3.47
70415;BMP280;57837;52.064;113.478;2022-11-15T03:38:36;92928.59;;;3.43
70415;BMP280;57837;52.064;113.478;2022-11-15T03:42:21;92927.69;;;3.50
70415;BMP280;57837;52.064;113.478;2022-11-15T03:45:50;92920.75;;;3.50
70415;BMP280;57837;52.064;113.478;2022-11-15T03:49:32;92916.84;;;3.46
70415;BMP280;57837;52.064;113.478;2022-11-15T03:52:56;92916.94;;;3.42
70415;BMP280;57837;52.064;113.478;2022-11-15T03:56:21;92912.44;;;3.46
70415;BMP280;57837;52.064;113.478;2022-11-15T03:59:44;92905.19;;;3.45
70415;BMP280;57837;52.064;113.478;2022-11-15T04:03:06;92915.13;;;3.56
70415;BMP280;57837;52.064;113.478;2022-11-15T04:06:28;92903.38;;;3.58
70415;BMP280;57837;52.064;113.478;2022-11-15T04:09:51;92898.53;;;3.47
70415;BMP280;57837;52.064;113.478;2022-11-15T04:13:25;92889.84;;;3.45
70415;BMP280;57837;52.064;113.478;2022-11-15T04:16:48;92879.03;;;3.37
70415;BMP280;57837;52.064;113.478;2022-11-15T04:20:22;92888.59;;;3.49
70415;BMP280;57837;52.064;113.478;2022-11-15T04:24:03;92880.81;;;3.69
70415;BMP280;57837;52.064;113.478;2022-11-15T04:27:33;92876.72;;;4.01
70415;BMP280;57837;52.064;113.478;2022-11-15T04:30:54;92878.63;;;3.97
70415;BMP280;57837;52.064;113.478;2022-11-15T04:34:17;92876.00;;;4.00
70415;BMP280;57837;52.064;113.478;2022-11-15T04:37:39;92880.94;;;4.07
70415;BMP280;57837;52.064;113.478;2022-11-15T04:41:09;92882.47;;;4.05
70415;BMP280;57837;52.064;113.478;2022-11-15T04:44:30;92885.53;;;4.12
70415;BMP280;57837;52.064;113.478;2022-11-15T04:47:52;92874.50;;;4.15
70415;BMP280;57837;52.064;113.478;2022-11-15T04:51:14;92871.19;;;4.02
70415;BMP280;57837;52.064;113.478;2022-11-15T04:54:36;92864.81;;;3.94
70415;BMP280;57837;52.064;113.478;2022-11-15T04:58:01;92862.66;;;3.93
70415;BMP280;57837;52.064;113.478;2022-11-15T05:01:24;92862.56;;;3.96
70415;BMP280;57837;52.064;113.478;2022-11-15T05:04:45;92859.94;;;4.12
70415;BMP280;57837;52.064;113.478;2022-11-15T05:08:07;92862.88;;;3.98
70415;BMP280;57837;52.064;113.478;2022-11-15T05:11:28;92863.09;;;4.16
70415;BMP280;57837;52.064;113.478;2022-11-15T05:14:49;92847.28;;;4.34
70415;BMP280;57837;52.064;113.478;2022-11-15T05:18:11;92855.56;;;4.51
70415;BMP280;57837;52.064;113.478;2022-11-15T05:21:33;92850.13;;;4.62
70415;BMP280;57837;52.064;113.478;2022-11-15T05:24:55;92849.81;;;4.72
70415;BMP280;57837;52.064;113.478;2022-11-15T05:28:17;92855.75;;;4.82
70415;BMP280;57837;52.064;113.478;2022-11-15T05:31:40;92855.91;;;5.00
70415;BMP280;57837;52.064;113.478;2022-11-15T05:35:04;92856.63;;;5.01
70415;BMP280;57837;52.064;113.478;2022-11-15T05:38:29;92855.88;;;5.13
70415;BMP280;57837;52.064;113.478;2022-11-15T05:41:54;92865.50;;;5.21
70415;BMP280;57837;52.064;113.478;2022-11-15T05:45:18;92854.53;;;5.21
70415;BMP280;57837;52.064;113.478;2022-11-15T05:48:51;92856.75;;;5.31
70415;BMP280;57837;52.064;113.478;2022-11-15T05:52:16;92853.72;;;5.46
70415;BMP280;57837;52.064;113.478;2022-11-15T05:55:38;92865.44;;;5.68
70415;BMP280;57837;52.064;113.478;2022-11-15T05:59:01;92867.00;;;5.66
70415;BMP280;57837;52.064;113.478;2022-11-15T06:02:23;92855.91;;;5.78
70415;BMP280;57837;52.064;113.478;2022-11-15T06:05:46;92861.19;;;5.96
70415;BMP280;57837;52.064;113.478;2022-11-15T06:09:07;92871.63;;;6.02
70415;BMP280;57837;52.064;113.478;2022-11-15T06:12:28;92864.28;;;5.91
70415;BMP280;57837;52.064;113.478;2022-11-15T06:15:50;92873.59;;;5.76
70415;BMP280;57837;52.064;113.478;2022-11-15T06:19:12;92877.91;;;5.57
70415;BMP280;57837;52.064;113.478;2022-11-15T06:22:33;92874.84;;;5.50
70415;BMP280;57837;52.064;113.478;2022-11-15T06:25:57;92871.41;;;5.65
70415;BMP280;57837;52.064;113.478;2022-11-15T06:29:19;92869.19;;;5.77
70415;BMP280;57837;52.064;113.478;2022-11-15T06:32:41;92878.25;;;5.90
70415;BMP280;57837;52.064;113.478;2022-11-15T06:36:07;92870.31;;;5.97
70415;BMP280;57837;52.064;113.478;2022-11-15T06:39:37;92879.06;;;6.00
70415;BMP280;57837;52.064;113.478;2022-11-15T06:43:00;92882.88;;;6.04
70415;BMP280;57837;52.064;113.478;2022-11-15T06:46:22;92876.72;;;5.93
70415;BMP280;57837;52.064;113.478;2022-11-15T06:49:44;92875.34;;;5.79
70415;BMP280;57837;52.064;113.478;2022-11-15T06:53:06;92868.00;;;5.68
70415;BMP280;57837;52.064;113.478;2022-11-15T06:56:28;92869.66;;;5.62
70415;BMP280;57837;52.064;113.478;2022-11-15T06:59:50;92874.13;;;5.49
70415;BMP280;57837;52.064;113.478;2022-11-15T07:03:12;92863.94;;;5.37
70415;BMP280;57837;52.064;113.478;2022-11-15T07:06:33;92862.84;;;5.25
70415;BMP280;57837;52.064;113.478;2022-11-15T07:09:55;92871.28;;;5.13
70415;BMP280;57837;52.064;113.478;2022-11-15T07:13:17;92864.97;;;4.92
70415;BMP280;57837;52.064;113.478;2022-11-15T07:16:39;92872.06;;;4.88
70415;BMP280;57837;52.064;113.478;2022-11-15T07:20:01;92867.13;;;4.81
70415;BMP280;57837;52.064;113.478;2022-11-15T07:23:23;92874.81;;;4.81
70415;BMP280;57837;52.064;113.478;2022-11-15T07:26:45;92875.44;;;4.85
70415;BMP280;57837;52.064;113.478;2022-11-15T07:30:07;92865.50;;;4.87
70415;BMP280;57837;52.064;113.478;2022-11-15T07:33:30;92885.06;;;4.68
70415;BMP280;57837;52.064;113.478;2022-11-15T07:36:53;92877.91;;;4.50
70415;BMP280;57837;52.064;113.478;2022-11-15T07:40:15;92884.75;;;4.28
70415;BMP280;57837;52.064;113.478;2022-11-15T07:43:36;92889.94;;;4.12
70415;BMP280;57837;52.064;113.478;2022-11-15T07:46:59;92884.06;;;3.99
70415;BMP280;57837;52.064;113.478;2022-11-15T07:50:20;92896.84;;;3.86
70415;BMP280;57837;52.064;113.478;2022-11-15T07:53:42;92894.22;;;3.73
70415;BMP280;57837;52.064;113.478;2022-11-15T07:57:05;92902.56;;;3.61
70415;BMP280;57837;52.064;113.478;2022-11-15T08:00:29;92910.50;;;3.50
70415;BMP280;57837;52.064;113.478;2022-11-15T08:03:51;92916.28;;;3.38
70415;BMP280;57837;52.064;113.478;2022-11-15T08:07:13;92919.88;;;3.25
70415;BMP280;57837;52.064;113.478;2022-11-15T08:10:34;92923.34;;;3.18
70415;BMP280;57837;52.064;113.478;2022-11-15T08:14:00;92931.94;;;3.08
70415;BMP280;57837;52.064;113.478;2022-11-15T08:17:23;92927.69;;;3.01
70415;BMP280;57837;52.064;113.478;2022-11-15T08:20:45;92936.66;;;2.93
70415;BMP280;57837;52.064;113.478;2022-11-15T08:24:09;92939.16;;;2.77
70415;BMP280;57837;52.064;113.478;2022-11-15T08:27:32;92947.75;;;2.67
70415;BMP280;57837;52.064;113.478;2022-11-15T08:30:54;92946.59;;;2.52
70415;BMP280;57837;52.064;113.478;2022-11-15T08:34:17;92942.09;;;2.39
70415;BMP280;57837;52.064;113.478;2022-11-15T08:37:39;92948.91;;;2.26
70415;BMP280;57837;52.064;113.478;2022-11-15T08:41:04;92957.41;;;2.20
70415;BMP280;57837;52.064;113.478;2022-11-15T08:44:27;92955.06;;;2.09
70415;BMP280;57837;52.064;113.478;2022-11-15T08:47:49;92957.66;;;2.05
70415;BMP280;57837;52.064;113.478;2022-11-15T08:51:15;92960.66;;;2.00
70415;BMP280;57837;52.064;113.478;2022-11-15T08:54:37;92963.41;;;1.90
70415;BMP280;57837;52.064;113.478;2022-11-15T08:57:59;92960.59;;;1.84
70415;BMP280;57837;52.064;113.478;2022-11-15T09:01:22;92965.41;;;1.79
70415;BMP280;57837;52.064;113.478;2022-11-15T09:04:44;92957.53;;;1.69
70415;BMP280;57837;52.064;113.478;2022-11-15T09:08:06;92967.41;;;1.67
70415;BMP280;57837;52.064;113.478;2022-11-15T09:11:48;92975.50;;;1.62
70415;BMP280;57837;52.064;113.478;2022-11-15T09:15:12;92973.72;;;1.59
70415;BMP280;57837;52.064;113.478;2022-11-15T09:18:35;92982.53;;;1.55
70415;BMP280;57837;52.064;113.478;2022-11-15T09:21:57;92980.84;;;1.45
70415;BMP280;57837;52.064;113.478;2022-11-15T09:25:19;92988.53;;;1.41
70415;BMP280;57837;52.064;113.478;2022-11-15T09:28:41;92987.63;;;1.31
70415;BMP280;57837;52.064;113.478;2022-11-15T09:32:03;92998.63;;;1.25
70415;BMP280;57837;52.064;113.478;2022-11-15T09:35:26;92998.31;;;1.19
70415;BMP280;57837;52.064;113.478;2022-11-15T09:38:48;93001.31;;;1.14
70415;BMP280;57837;52.064;113.478;2022-11-15T09:46:17;93012.16;;;1.18
70415;BMP280;57837;52.064;113.478;2022-11-15T09:49:43;93013.97;;;1.21
70415;BMP280;57837;52.064;113.478;2022-11-15T09:52:52;93018.28;;;1.24
70415;BMP280;57837;52.064;113.478;2022-11-15T09:56:02;93015.69;;;1.28
70415;BMP280;57837;52.064;113.478;2022-11-15T10:03:36;93013.53;;;1.26
70415;BMP280;57837;52.064;113.478;2022-11-15T10:06:44;93023.03;;;1.22
70415;BMP280;57837;52.064;113.478;2022-11-15T10:10:01;93030.69;;;1.22
70415;BMP280;57837;52.064;113.478;2022-11-15T10:23:11;93047.34;;;1.00
70415;BMP280;57837;52.064;113.478;2022-11-15T10:26:16;93048.78;;;1.01
70415;BMP280;57837;52.064;113.478;2022-11-15T10:29:21;93059.34;;;0.99
70415;BMP280;57837;52.064;113.478;2022-11-15T10:32:29;93055.44;;;0.91
70415;BMP280;57837;52.064;113.478;2022-11-15T10:35:35;93062.78;;;0.82
70415;BMP280;57837;52.064;113.478;2022-11-15T10:41:52;93059.56;;;0.82
70415;BMP280;57837;52.064;113.478;2022-11-15T10:44:55;93070.50;;;0.79
70415;BMP280;57837;52.064;113.478;2022-11-15T10:48:25;93069.06;;;0.78
70415;BMP280;57837;52.064;113.478;2022-11-15T10:51:29;93073.53;;;0.63
70415;BMP280;57837;52.064;113.478;2022-11-15T10:58:28;93085.41;;;0.39
70415;BMP280;57837;52.064;113.478;2022-11-15T11:01:45;93084.25;;;0.47
70415;BMP280;57837;52.064;113.478;2022-11-15T11:04:50;93086.09;;;0.43
70415;BMP280;57837;52.064;113.478;2022-11-15T11:07:59;93081.78;;;0.37
70415;BMP280;57837;52.064;113.478;2022-11-15T11:11:03;93083.97;;;0.34
70415;BMP280;57837;52.064;113.478;2022-11-15T11:14:21;93076.00;;;0.32
70415;BMP280;57837;52.064;113.478;2022-11-15T11:17:32;93076.41;;;0.31
70415;BMP280;57837;52.064;113.478;2022-11-15T11:20:41;93073.13;;;0.30
70415;BMP280;57837;52.064;113.478;2022-11-15T11:23:53;93082.31;;;0.21
70415;BMP280;57837;52.064;113.478;2022-11-15T11:34:48;93085.13;;;0.30
70415;BMP280;57837;52.064;113.478;2022-11-15T11:37:59;93092.13;;;0.19
70415;BMP280;57837;52.064;113.478;2022-11-15T11:55:18;93122.50;;;-0.15
70415;BMP280;57837;52.064;113.478;2022-11-15T11:58:37;93126.50;;;-0.18
70415;BMP280;57837;52.064;113.478;2022-11-15T12:01:43;93109.78;;;-0.15
70415;BMP280;57837;52.064;113.478;2022-11-15T12:04:51;93108.69;;;-0.11
70415;BMP280;57837;52.064;113.478;2022-11-15T12:08:16;93107.59;;;-0.10
70415;BMP280;57837;52.064;113.478;2022-11-15T12:18:12;93107.94;;;-0.08
70415;BMP280;57837;52.064;113.478;2022-11-15T12:24:51;93117.34;;;-0.01
70415;BMP280;57837;52.064;113.478;2022-11-15T12:31:37;93114.47;;;-0.07
70415;BMP280;57837;52.064;113.478;2022-11-15T12:34:44;93108.66;;;-0.07
70415;BMP280;57837;52.064;113.478;2022-11-15T12:37:50;93109.03;;;-0.09
70415;BMP280;57837;52.064;113.478;2022-11-15T12:47:42;93115.19;;;-0.03
70415;BMP280;57837;52.064;113.478;2022-11-15T12:50:53;93114.81;;;-0.01
70415;BMP280;57837;52.064;113.478;2022-11-15T12:53:57;93103.56;;;-0.04
70415;BMP280;57837;52.064;113.478;2022-11-15T13:03:25;93117.34;;;-0.01
70415;BMP280;57837;52.064;113.478;2022-11-15T13:09:56;93115.63;;;-0.18
70415;BMP280;57837;52.064;113.478;2022-11-15T13:13:11;93117.50;;;-0.29
70415;BMP280;57837;52.064;113.478;2022-11-15T13:16:20;93114.63;;;-0.39
70415;BMP280;57837;52.064;113.478;2022-11-15T13:19:24;93120.06;;;-0.40
70415;BMP280;57837;52.064;113.478;2022-11-15T13:22:29;93117.88;;;-0.38
70415;BMP280;57837;52.064;113.478;2022-11-15T13:26:05;93129.47;;;-0.26
70415;BMP280;57837;52.064;113.478;2022-11-15T13:29:18;93129.78;;;-0.21
70415;BMP280;57837;52.064;113.478;2022-11-15T13:32:23;93123.97;;;-0.18
70415;BMP280;57837;52.064;113.478;2022-11-15T13:35:28;93128.69;;;-0.16
70415;BMP280;57837;52.064;113.478;2022-11-15T13:38:35;93129.78;;;-0.17
70415;BMP280;57837;52.064;113.478;2022-11-15T13:41:48;93134.16;;;-0.21
70415;BMP280;57837;52.064;113.478;2022-11-15T13:44:59;93129.09;;;-0.25
70415;BMP280;57837;52.064;113.478;2022-11-15T13:48:04;93130.91;;;-0.25
70415;BMP280;57837;52.064;113.478;2022-11-15T13:51:16;93134.22;;;-0.32
70415;BMP280;57837;52.064;113.478;2022-11-15T14:00:47;93153.97;;;-0.79
70415;BMP280;57837;52.064;113.478;2022-11-15T14:03:55;93149.31;;;-1.05
70415;BMP280;57837;52.064;113.478;2022-11-15T14:07:01;93152.63;;;-1.33
70415;BMP280;57837;52.064;113.478;2022-11-15T14:10:34;93151.88;;;-1.48
70415;BMP280;57837;52.064;113.478;2022-11-15T14:13:38;93158.78;;;-1.59
70415;BMP280;57837;52.064;113.478;2022-11-15T14:16:43;93156.97;;;-1.69
70415;BMP280;57837;52.064;113.478;2022-11-15T14:19:47;93159.47;;;-1.83
70415;BMP280;57837;52.064;113.478;2022-11-15T14:22:55;93160.88;;;-1.89
70415;BMP280;57837;52.064;113.478;2022-11-15T14:25:59;93161.63;;;-1.92
70415;BMP280;57837;52.064;113.478;2022-11-15T14:29:22;93160.19;;;-1.93
70415;BMP280;57837;52.064;113.478;2022-11-15T14:32:29;93159.09;;;-1.92
70415;BMP280;57837;52.064;113.478;2022-11-15T14:35:33;93157.97;;;-2.02
70415;BMP280;57837;52.064;113.478;2022-11-15T14:38:42;93167.34;;;-2.24
70415;BMP280;57837;52.064;113.478;2022-11-15T14:41:48;93166.97;;;-2.19
70415;BMP280;57837;52.064;113.478;2022-11-15T14:44:52;93164.50;;;-1.97
70415;BMP280;57837;52.064;113.478;2022-11-15T14:47:56;93170.72;;;-1.84
70415;BMP280;57837;52.064;113.478;2022-11-15T14:50:59;93161.31;;;-1.77
70415;BMP280;57837;52.064;113.478;2022-11-15T14:54:03;93169.25;;;-1.85
70415;BMP280;57837;52.064;113.478;2022-11-15T14:57:06;93157.63;;;-2.04
70415;BMP280;57837;52.064;113.478;2022-11-15T15:00:10;93162.22;;;-2.35
70415;BMP280;57837;52.064;113.478;2022-11-15T15:03:14;93164.25;;;-2.65
70415;BMP280;57837;52.064;113.478;2022-11-15T15:06:18;93154.47;;;-2.67
70415;BMP280;57837;52.064;113.478;2022-11-15T15:09:22;93159.88;;;-2.75
70415;BMP280;57837;52.064;113.478;2022-11-15T15:12:26;93166.38;;;-2.78
70415;BMP280;57837;52.064;113.478;2022-11-15T15:15:35;93161.34;;;-2.74
70415;BMP280;57837;52.064;113.478;2022-11-15T15:18:39;93159.50;;;-2.77
70415;BMP280;57837;52.064;113.478;2022-11-15T15:21:43;93159.81;;;-2.86
70415;BMP280;57837;52.064;113.478;2022-11-15T15:24:46;93164.75;;;-3.07
70415;BMP280;57837;52.064;113.478;2022-11-15T15:27:50;93158.16;;;-3.19
70415;BMP280;57837;52.064;113.478;2022-11-15T15:30:54;93166.16;;;-3.13
70415;BMP280;57837;52.064;113.478;2022-11-15T15:33:58;93161.84;;;-3.09
70415;BMP280;57837;52.064;113.478;2022-11-15T15:40:18;93166.84;;;-3.20
70415;BMP280;57837;52.064;113.478;2022-11-15T15:43:22;93166.16;;;-3.13
70415;BMP280;57837;52.064;113.478;2022-11-15T15:46:26;93162.69;;;-2.91
70415;BMP280;57837;52.064;113.478;2022-11-15T15:49:30;93160.59;;;-2.71
70415;BMP280;57837;52.064;113.478;2022-11-15T15:52:34;93154.19;;;-2.58
70415;BMP280;57837;52.064;113.478;2022-11-15T15:55:38;93168.91;;;-2.78
70415;BMP280;57837;52.064;113.478;2022-11-15T15:58:42;93162.25;;;-3.04
70415;BMP280;57837;52.064;113.478;2022-11-15T16:01:46;93162.88;;;-3.17
70415;BMP280;57837;52.064;113.478;2022-11-15T16:04:50;93164.34;;;-3.16
70415;BMP280;57837;52.064;113.478;2022-11-15T16:07:53;93168.75;;;-3.06
70415;BMP280;57837;52.064;113.478;2022-11-15T16:10:56;93175.94;;;-3.08
70415;BMP280;57837;52.064;113.478;2022-11-15T16:14:00;93172.25;;;-3.21
70415;BMP280;57837;52.064;113.478;2022-11-15T16:17:04;93172.91;;;-3.32
70415;BMP280;57837;52.064;113.478;2022-11-15T16:23:37;93167.47;;;-3.34
70415;BMP280;57837;52.064;113.478;2022-11-15T16:26:40;93175.34;;;-3.42
70415;BMP280;57837;52.064;113.478;2022-11-15T16:29:45;93170.16;;;-3.53
70415;BMP280;57837;52.064;113.478;2022-11-15T16:32:48;93180.38;;;-3.46
70415;BMP280;57837;52.064;113.478;2022-11-15T16:35:52;93176.44;;;-3.40
70415;BMP280;57837;52.064;113.478;2022-11-15T16:38:55;93180.78;;;-3.40
70415;BMP280;57837;52.064;113.478;2022-11-15T16:42:00;93170.59;;;-3.47
70415;BMP280;57837;52.064;113.478;2022-11-15T16:45:05;93177.75;;;-3.53
70415;BMP280;57837;52.064;113.478;2022-11-15T16:48:21;93177.38;;;-3.58
70415;BMP280;57837;52.064;113.478;2022-11-15T16:51:26;93173.34;;;-3.63
70415;BMP280;57837;52.064;113.478;2022-11-15T16:54:30;93176.22;;;-3.65
70415;BMP280;57837;52.064;113.478;2022-11-15T16:57:33;93183.03;;;-3.72
70415;BMP280;57837;52.064;113.478;2022-11-15T17:00:37;93186.72;;;-3.96
70415;BMP280;57837;52.064;113.478;2022-11-15T17:03:40;93177.78;;;-4.23
70415;BMP280;57837;52.064;113.478;2022-11-15T17:06:46;93175.44;;;-4.39
70415;BMP280;57837;52.064;113.478;2022-11-15T17:09:50;93173.03;;;-4.29
70415;BMP280;57837;52.064;113.478;2022-11-15T17:12:55;93173.94;;;-4.14
70415;BMP280;57837;52.064;113.478;2022-11-15T17:16:10;93177.66;;;-4.01
70415;BMP280;57837;52.064;113.478;2022-11-15T17:19:16;93170.03;;;-4.04
70415;BMP280;57837;52.064;113.478;2022-11-15T17:22:20;93169.34;;;-4.01
70415;BMP280;57837;52.064;113.478;2022-11-15T17:25:24;93178.22;;;-3.84
70415;BMP280;57837;52.064;113.478;2022-11-15T17:28:27;93186.06;;;-3.93
70415;BMP280;57837;52.064;113.478;2022-11-15T17:31:32;93180.06;;;-4.15
70415;BMP280;57837;52.064;113.478;2022-11-15T17:34:36;93173.34;;;-4.34
70415;BMP280;57837;52.064;113.478;2022-11-15T17:37:40;93179.63;;;-4.50
70415;BMP280;57837;52.064;113.478;2022-11-15T17:40:44;93183.78;;;-4.62
70415;BMP280;57837;52.064;113.478;2022-11-15T17:43:47;93183.56;;;-4.53
70415;BMP280;57837;52.064;113.478;2022-11-15T17:46:51;93192.53;;;-4.55
70415;BMP280;57837;52.064;113.478;2022-11-15T17:49:55;93184.91;;;-4.59
70415;BMP280;57837;52.064;113.478;2022-11-15T17:52:58;93184.50;;;-4.61
70415;BMP280;57837;52.064;113.478;2022-11-15T17:56:08;93184.78;;;-4.70
70415;BMP280;57837;52.064;113.478;2022-11-15T17:59:12;93184.34;;;-4.75
70415;BMP280;57837;52.064;113.478;2022-11-15T18:02:23;93198.34;;;-4.78
70415;BMP280;57837;52.064;113.478;2022-11-15T18:05:26;93195.16;;;-4.75
70415;BMP280;57837;52.064;113.478;2022-11-15T18:08:30;93198.88;;;-4.69
70415;BMP280;57837;52.064;113.478;2022-11-15T18:11:37;93191.25;;;-4.72
70415;BMP280;57837;52.064;113.478;2022-11-15T18:14:41;93190.41;;;-4.80
70415;BMP280;57837;52.064;113.478;2022-11-15T18:17:45;93190.34;;;-4.83
70415;BMP280;57837;52.064;113.478;2022-11-15T18:20:49;93200.50;;;-4.80
70415;BMP280;57837;52.064;113.478;2022-11-15T18:23:54;93194.19;;;-4.93
70415;BMP280;57837;52.064;113.478;2022-11-15T18:27:00;93192.34;;;-5.19
70415;BMP280;57837;52.064;113.478;2022-11-15T18:30:04;93186.03;;;-5.32
70415;BMP280;57837;52.064;113.478;2022-11-15T18:33:08;93182.31;;;-5.38
70415;BMP280;57837;52.064;113.478;2022-11-15T18:36:14;93185.97;;;-5.36
70415;BMP280;57837;52.064;113.478;2022-11-15T18:39:17;93182.78;;;-5.33
70415;BMP280;57837;52.064;113.478;2022-11-15T18:42:21;93185.72;;;-5.27
70415;BMP280;57837;52.064;113.478;2022-11-15T18:45:24;93184.44;;;-5.40
70415;BMP280;57837;52.064;113.478;2022-11-15T18:48:29;93189.88;;;-5.38
70415;BMP280;57837;52.064;113.478;2022-11-15T18:51:35;93187.94;;;-5.48
70415;BMP280;57837;52.064;113.478;2022-11-15T18:54:39;93185.94;;;-5.59
70415;BMP280;57837;52.064;113.478;2022-11-15T18:57:42;93191.66;;;-5.62
70415;BMP280;57837;52.064;113.478;2022-11-15T19:00:46;93181.13;;;-5.67
70415;BMP280;57837;52.064;113.478;2022-11-15T19:03:51;93182.38;;;-5.58
70415;BMP280;57837;52.064;113.478;2022-11-15T19:06:55;93178.31;;;-5.62
70415;BMP280;57837;52.064;113.478;2022-11-15T19:09:58;93178.75;;;-5.79
70415;BMP280;57837;52.064;113.478;2022-11-15T19:13:02;93179.75;;;-5.84
70415;BMP280;57837;52.064;113.478;2022-11-15T19:16:06;93182.59;;;-6.05
70415;BMP280;57837;52.064;113.478;2022-11-15T19:19:13;93186.06;;;-6.48
70415;BMP280;57837;52.064;113.478;2022-11-15T19:22:17;93175.41;;;-6.76
70415;BMP280;57837;52.064;113.478;2022-11-15T19:25:21;93178.50;;;-6.99
70415;BMP280;57837;52.064;113.478;2022-11-15T19:28:31;93172.13;;;-7.12
70415;BMP280;57837;52.064;113.478;2022-11-15T19:31:35;93179.16;;;-6.86
70415;BMP280;57837;52.064;113.478;2022-11-15T19:34:39;93178.03;;;-6.89
70415;BMP280;57837;52.064;113.478;2022-11-15T19:37:44;93172.91;;;-7.08
70415;BMP280;57837;52.064;113.478;2022-11-15T19:40:47;93176.16;;;-7.07
70415;BMP280;57837;52.064;113.478;2022-11-15T19:43:52;93165.28;;;-7.12
70415;BMP280;57837;52.064;113.478;2022-11-15T19:46:55;93173.66;;;-7.07
70415;BMP280;57837;52.064;113.478;2022-11-15T19:49:59;93178.50;;;-6.99
70415;BMP280;57837;52.064;113.478;2022-11-15T19:53:03;93177.56;;;-6.94
70415;BMP280;57837;52.064;113.478;2022-11-15T19:56:10;93174.13;;;-6.86
70415;BMP280;57837;52.064;113.478;2022-11-15T19:59:14;93167.09;;;-6.96
70415;BMP280;57837;52.064;113.478;2022-11-15T20:02:19;93176.97;;;-6.88
70415;BMP280;57837;52.064;113.478;2022-11-15T20:05:23;93168.03;;;-6.85
70415;BMP280;57837;52.064;113.478;2022-11-15T20:08:27;93174.06;;;-6.90
70415;BMP280;57837;52.064;113.478;2022-11-15T20:11:31;93166.03;;;-6.95
70415;BMP280;57837;52.064;113.478;2022-11-15T20:14:36;93168.56;;;-6.95